TRF weather

Sandefjord Airport, Torp
Torp, Vestfold, Norway

Public forecast

Using degrees Celsius for public forecast. Weather courtesy of forecast.io.

Current aviation weather report (METAR) for Sandefjord Airport, Torp

Retrieved 2019/11/21 20:20 UTC (0 seconds ago):

ENTO 212020Z 36004KT 4000 -RA BR VV003 05/05 Q1017 TEMPO 8000 OVC005

Aviation forecast (TAF) for Sandefjord Airport, Torp

Retrieved 2019/11/21 18:00 UTC (2 hours ago):

TAF TAF ENTO 211700Z 2118/2218 04008KT 7000 -RADZ SCT001 OVC008 TEMPO 2118/2218 1400 RADZ BR OVC001